Time;durP1;ratioP1;P1;durP2;ratioP2;P2;SDS_P1;SDS_P2;PMS_P1;PMS_P2;Temp;Humidity;BMP_temperature;BMP_pressure;BME280_temperature;BME280_humidity;BME280_pressure;Samples;Min_cycle;Max_cycle;Signal;HPM_P1;HPM_P2
2022/08/02 00:01:20;;;;;;;1276.25;999.90;;;16.00;99.90;;;;;;4959717;28;20419;-84
2022/08/02 00:03:48;;;;;;;1452.70;999.90;;;15.90;99.90;;;;;;4970262;28;20426;-84
2022/08/02 00:06:16;;;;;;;1257.60;999.90;;;16.00;99.90;;;;;;4963312;28;20415;-82
2022/08/02 00:08:44;;;;;;;1225.55;999.90;;;15.90;99.90;;;;;;4967578;28;20398;-84
2022/08/02 00:11:11;;;;;;;1472.22;999.90;;;15.90;99.90;;;;;;4966336;28;20769;-84
2022/08/02 00:13:39;;;;;;;1515.00;999.90;;;15.90;99.90;;;;;;4966257;28;20414;-84
2022/08/02 00:16:07;;;;;;;1363.75;999.90;;;15.90;99.90;;;;;;4966503;28;20413;-84
2022/08/02 00:18:34;;;;;;;1317.38;999.90;;;16.00;99.90;;;;;;4965051;28;20766;-84
2022/08/02 00:21:02;;;;;;;1221.30;999.90;;;16.00;99.90;;;;;;4966054;28;20404;-84
2022/08/02 00:23:30;;;;;;;1085.07;970.33;;;16.00;99.90;;;;;;4965505;28;20927;-84
2022/08/02 00:25:57;;;;;;;1256.40;999.90;;;15.90;99.90;;;;;;4967035;28;20402;-85
2022/08/02 00:28:25;;;;;;;1276.55;999.90;;;15.90;99.90;;;;;;4955927;29;20395;-85
2022/08/02 00:30:56;;;;;;;1274.78;999.90;;;16.00;99.90;;;;;;4951164;28;20506;-84
2022/08/02 00:33:25;;;;;;;1392.95;999.90;;;15.90;99.90;;;;;;4975466;28;20408;-84
2022/08/02 00:36:12;;;;;;;1237.73;999.90;;;15.90;99.90;;;;;;4967764;28;20881;-83
2022/08/02 00:38:43;;;;;;;1263.70;999.90;;;15.80;99.90;;;;;;4971490;28;20385;-83
2022/08/02 00:41:17;;;;;;;1245.10;999.90;;;15.80;99.90;;;;;;4967391;28;20391;-84
2022/08/02 00:43:46;;;;;;;1307.10;999.90;;;15.80;99.90;;;;;;4957992;28;20447;-85
2022/08/02 00:46:16;;;;;;;1208.05;999.90;;;15.90;99.90;;;;;;4974407;28;20457;-83
2022/08/02 00:48:47;;;;;;;969.53;872.03;;;15.80;99.90;;;;;;4959789;28;20426;-84
2022/08/02 00:51:16;;;;;;;1232.30;999.90;;;15.80;99.90;;;;;;4971939;28;20408;-85
2022/08/02 00:53:44;;;;;;;1383.13;999.90;;;15.80;99.90;;;;;;4963895;28;20425;-83
2022/08/02 00:56:11;;;;;;;1368.57;999.90;;;15.80;99.90;;;;;;4956438;28;20419;-84
2022/08/02 00:58:39;;;;;;;1498.87;999.90;;;15.80;99.90;;;;;;4964179;28;20412;-85
2022/08/02 01:01:07;;;;;;;1410.93;999.90;;;15.90;99.90;;;;;;4958035;28;20450;-84
2022/08/02 01:03:34;;;;;;;1380.05;999.90;;;15.90;99.90;;;;;;4965982;28;20404;-84
2022/08/02 01:06:02;;;;;;;1261.47;999.90;;;15.90;99.90;;;;;;4965757;28;20396;-85
2022/08/02 01:08:39;;;;;;;1216.38;999.90;;;15.90;99.90;;;;;;4967321;28;20438;-86
2022/08/02 01:11:06;;;;;;;1258.28;999.90;;;15.90;99.90;;;;;;4963186;28;20403;-83
2022/08/02 01:13:34;;;;;;;1324.90;999.90;;;15.90;99.90;;;;;;4965062;28;20413;-84
2022/08/02 01:16:11;;;;;;;1294.70;999.90;;;15.90;99.90;;;;;;4957141;28;20414;-84
2022/08/02 01:18:44;;;;;;;1314.22;999.90;;;15.80;99.90;;;;;;4972513;28;20492;-84
2022/08/02 01:21:31;;;;;;;1248.00;999.90;;;15.90;99.90;;;;;;4955674;28;20459;-84
2022/08/02 01:24:07;;;;;;;1299.03;999.90;;;15.80;99.90;;;;;;4972747;28;20922;-84
2022/08/02 01:26:40;;;;;;;1442.22;999.90;;;15.90;99.90;;;;;;4971215;28;20468;-84
2022/08/02 01:29:20;;;;;;;1317.43;999.90;;;15.90;99.90;;;;;;4965451;28;20395;-83
2022/08/02 01:32:10;;;;;;;1258.70;999.90;;;15.90;99.90;;;;;;4966515;28;20667;-85
2022/08/02 01:34:56;;;;;;;1223.45;999.90;;;15.90;99.90;;;;;;4945759;28;20443;-84
2022/08/02 01:37:44;;;;;;;1262.63;999.90;;;15.90;99.90;;;;;;4946204;28;20435;-84
2022/08/02 01:40:21;;;;;;;1259.07;999.90;;;15.90;99.90;;;;;;4966859;28;20418;-84
2022/08/02 01:42:53;;;;;;;1247.72;999.90;;;15.80;99.90;;;;;;4961056;28;20898;-84
2022/08/02 01:45:29;;;;;;;1314.37;999.90;;;15.90;99.90;;;;;;4964355;28;20419;-85
2022/08/02 01:47:59;;;;;;;1359.50;999.90;;;15.80;99.90;;;;;;4965455;28;20384;-84
2022/08/02 01:50:32;;;;;;;1472.68;999.90;;;15.80;99.90;;;;;;4964251;28;20459;-84
2022/08/02 01:53:05;;;;;;;1318.20;999.90;;;15.80;99.90;;;;;;4961909;28;20932;-84
2022/08/02 01:55:44;;;;;;;1267.75;999.90;;;15.80;99.90;;;;;;4942837;28;20471;-84
2022/08/02 01:58:33;;;;;;;1189.82;999.90;;;15.80;99.90;;;;;;4958996;28;20403;-84
2022/08/02 02:01:03;;;;;;;1205.75;999.90;;;15.80;99.90;;;;;;4965886;28;20422;-85
2022/08/02 02:03:32;;;;;;;1286.75;999.90;;;15.80;99.90;;;;;;4968477;28;20892;-85
2022/08/02 02:06:02;;;;;;;1317.65;999.90;;;15.80;99.90;;;;;;4972991;28;20539;-84
2022/08/02 02:08:35;;;;;;;1228.97;999.90;;;15.80;99.90;;;;;;4960537;28;20780;-85
2022/08/02 02:11:03;;;;;;;1448.57;999.90;;;15.80;99.90;;;;;;4965053;28;20880;-85
2022/08/02 02:13:52;;;;;;;1285.67;999.90;;;15.80;99.90;;;;;;4949037;28;20487;-85
2022/08/02 02:16:21;;;;;;;1312.28;999.90;;;15.80;99.90;;;;;;4962293;28;20457;-84
2022/08/02 02:18:51;;;;;;;1288.93;999.90;;;15.80;99.90;;;;;;4964099;28;20489;-85
2022/08/02 02:21:19;;;;;;;1247.88;999.90;;;15.70;99.90;;;;;;4964007;28;20411;-85
2022/08/02 02:23:47;;;;;;;1295.32;999.90;;;15.70;99.90;;;;;;4963934;28;20491;-85
2022/08/02 02:26:18;;;;;;;1274.43;999.90;;;15.70;99.90;;;;;;4962721;28;20443;-84
2022/08/02 02:29:02;;;;;;;1277.63;999.90;;;15.60;99.90;;;;;;4964442;28;20893;-84
2022/08/02 02:31:43;;;;;;;1287.03;999.90;;;15.70;99.90;;;;;;4953454;28;20763;-85
2022/08/02 02:34:22;;;;;;;1260.15;999.90;;;15.60;99.90;;;;;;4961891;28;20499;-84
2022/08/02 02:36:51;;;;;;;1395.65;999.90;;;15.60;99.90;;;;;;4965356;28;20393;-85
2022/08/02 02:39:22;;;;;;;1297.07;999.90;;;15.60;99.90;;;;;;4940187;28;20406;-84
2022/08/02 02:41:52;;;;;;;1517.68;999.90;;;15.60;99.90;;;;;;4965139;28;20412;-84
2022/08/02 02:44:21;;;;;;;1372.80;999.90;;;15.70;99.90;;;;;;4963701;28;20414;-85
2022/08/02 02:46:52;;;;;;;1503.60;999.90;;;15.70;99.90;;;;;;4976028;28;20892;-84
2022/08/02 02:49:21;;;;;;;1501.35;999.90;;;15.70;99.90;;;;;;4961074;28;20404;-84
2022/08/02 02:51:51;;;;;;;1278.35;999.90;;;15.60;99.90;;;;;;4971072;28;20486;-84
2022/08/02 02:54:19;;;;;;;1522.35;999.90;;;15.70;99.90;;;;;;4963885;28;20493;-85
2022/08/02 02:57:02;;;;;;;1212.07;999.90;;;15.60;99.90;;;;;;4969745;28;20402;-83
2022/08/02 02:59:31;;;;;;;1323.22;999.90;;;15.60;99.90;;;;;;4959330;28;20405;-85
2022/08/02 03:02:00;;;;;;;1250.13;999.90;;;15.60;99.90;;;;;;4963526;28;20456;-84
2022/08/02 03:04:30;;;;;;;1267.73;999.90;;;15.60;99.90;;;;;;4963198;28;20418;-84
2022/08/02 03:07:18;;;;;;;1264.43;999.90;;;15.60;99.90;;;;;;4957867;28;20492;-84
2022/08/02 03:09:45;;;;;;;1225.20;999.90;;;15.60;99.90;;;;;;4963200;28;20494;-85
2022/08/02 03:12:23;;;;;;;1240.50;999.90;;;15.60;99.90;;;;;;4963807;28;20396;-85
2022/08/02 03:15:03;;;;;;;1364.85;999.90;;;15.60;99.90;;;;;;4955053;28;20412;-84
2022/08/02 03:17:41;;;;;;;1337.72;999.90;;;15.60;99.90;;;;;;4960251;28;20474;-84
2022/08/02 03:20:15;;;;;;;1223.13;999.90;;;15.60;99.90;;;;;;4962987;28;20433;-82
2022/08/02 03:22:44;;;;;;;1254.35;999.90;;;15.60;99.90;;;;;;4964586;28;20388;-85
2022/08/02 03:25:13;;;;;;;1244.18;999.90;;;15.60;99.90;;;;;;4963612;28;20463;-85
2022/08/02 03:27:41;;;;;;;1334.43;999.90;;;15.60;99.90;;;;;;4964084;28;20406;-84
2022/08/02 03:30:11;;;;;;;1359.55;999.90;;;15.60;99.90;;;;;;4958232;28;20871;-84
2022/08/02 03:32:40;;;;;;;1254.50;999.90;;;15.60;99.90;;;;;;4952790;28;20404;-85
2022/08/02 03:35:11;;;;;;;1250.43;999.90;;;15.70;99.90;;;;;;4947223;28;20584;-85
2022/08/02 03:37:40;;;;;;;1255.85;999.90;;;15.70;99.90;;;;;;4969955;28;20410;-84
2022/08/02 03:40:10;;;;;;;1254.60;999.90;;;15.70;99.90;;;;;;4963447;28;20465;-85
2022/08/02 03:42:39;;;;;;;1302.75;999.90;;;15.70;99.90;;;;;;4961670;28;20392;-84
2022/08/02 03:45:09;;;;;;;1658.72;999.90;;;15.70;99.90;;;;;;4962114;28;20398;-84
2022/08/02 03:47:39;;;;;;;1266.80;999.90;;;15.70;99.90;;;;;;4960145;28;20452;-83
2022/08/02 03:50:15;;;;;;;1133.40;999.90;;;15.70;99.90;;;;;;4964764;28;20414;-83
2022/08/02 03:52:44;;;;;;;1303.63;999.90;;;15.70;99.90;;;;;;4966025;28;20449;-84
2022/08/02 03:55:12;;;;;;;1611.93;999.90;;;15.70;99.90;;;;;;4971131;28;20414;-85
2022/08/02 03:57:41;;;;;;;1279.57;999.90;;;15.70;99.90;;;;;;4966838;28;20489;-86
2022/08/02 04:00:14;;;;;;;1282.37;999.90;;;15.80;99.90;;;;;;4961293;28;20812;-85
2022/08/02 04:02:42;;;;;;;1367.85;999.90;;;15.80;99.90;;;;;;4962291;28;20414;-85
2022/08/02 04:05:09;;;;;;;1414.50;999.90;;;15.80;99.90;;;;;;4962378;28;20455;-84
2022/08/02 04:07:37;;;;;;;1277.60;999.90;;;15.80;99.90;;;;;;4968232;28;20411;-84
2022/08/02 04:10:25;;;;;;;1025.35;926.90;;;15.80;99.90;;;;;;4964883;28;20592;-84
2022/08/02 04:12:54;;;;;;;1289.28;999.90;;;15.70;99.90;;;;;;4947398;28;20900;-85
2022/08/02 04:15:23;;;;;;;1238.53;999.90;;;15.70;99.90;;;;;;4964230;28;21056;-84
2022/08/02 04:17:58;;;;;;;1285.70;999.90;;;15.70;99.90;;;;;;4963064;28;20498;-88
2022/08/02 04:20:30;;;;;;;1269.88;999.90;;;15.70;99.90;;;;;;4953169;28;20483;-87
2022/08/02 04:23:02;;;;;;;1284.65;999.90;;;15.70;99.90;;;;;;4968676;28;20482;-86
2022/08/02 04:25:32;;;;;;;1244.85;999.90;;;15.70;99.90;;;;;;4964023;28;20435;-85
2022/08/02 04:28:08;;;;;;;1061.17;955.63;;;15.80;99.90;;;;;;4967344;28;20411;-88
2022/08/02 04:30:48;;;;;;;1032.55;932.90;;;15.80;99.90;;;;;;4963942;28;20403;-86
2022/08/02 04:33:17;;;;;;;1125.77;999.17;;;15.70;99.90;;;;;;4953435;28;20399;-86
2022/08/02 04:35:45;;;;;;;1170.78;999.90;;;15.70;99.90;;;;;;4948421;28;20463;-87
2022/08/02 04:38:14;;;;;;;1141.53;999.90;;;15.70;99.90;;;;;;4955091;28;20473;-86
2022/08/02 04:40:55;;;;;;;1199.75;999.90;;;15.70;99.90;;;;;;4959682;28;20412;-88
2022/08/02 04:43:23;;;;;;;1203.87;999.90;;;15.70;99.90;;;;;;4961017;28;20757;-88
2022/08/02 04:45:52;;;;;;;1275.32;999.90;;;15.70;99.90;;;;;;4961446;28;20404;-86
2022/08/02 04:48:21;;;;;;;1494.97;999.90;;;15.70;99.90;;;;;;4954820;28;21030;-84
2022/08/02 04:50:49;;;;;;;1166.07;999.90;;;15.70;99.90;;;;;;4964587;28;20497;-83
2022/08/02 04:53:17;;;;;;;1236.93;999.90;;;15.70;99.90;;;;;;4963276;28;20465;-85
2022/08/02 04:55:45;;;;;;;1322.65;999.90;;;15.80;99.90;;;;;;4965883;28;20913;-86
2022/08/02 04:58:13;;;;;;;1253.78;999.90;;;15.90;99.90;;;;;;4965391;28;20387;-84
2022/08/02 05:01:01;;;;;;;1288.90;999.90;;;15.80;99.90;;;;;;4973057;28;20406;-84
2022/08/02 05:03:29;;;;;;;1305.35;999.90;;;15.80;99.90;;;;;;4967007;28;20406;-83
2022/08/02 05:05:57;;;;;;;1373.38;999.90;;;15.80;99.90;;;;;;4965501;28;20884;-83
2022/08/02 05:08:24;;;;;;;1038.38;941.58;;;15.80;99.90;;;;;;4955225;28;20498;-84
2022/08/02 05:10:52;;;;;;;1444.63;999.90;;;15.90;99.90;;;;;;4967225;28;20434;-83
2022/08/02 05:13:20;;;;;;;1253.80;999.90;;;15.90;99.90;;;;;;4966407;28;20406;-83
2022/08/02 05:15:49;;;;;;;1541.40;999.90;;;15.90;99.90;;;;;;4959051;28;20415;-84
2022/08/02 05:18:17;;;;;;;1328.28;999.90;;;15.90;99.90;;;;;;4966006;28;20410;-84
2022/08/02 05:20:45;;;;;;;1027.85;922.10;;;15.90;99.90;;;;;;4966947;28;20408;-83
2022/08/02 05:23:12;;;;;;;1018.80;913.78;;;16.00;99.90;;;;;;4965754;28;20492;-82
2022/08/02 05:25:40;;;;;;;1010.47;911.63;;;16.00;99.90;;;;;;4963142;28;20408;-84
2022/08/02 05:28:07;;;;;;;1099.53;989.03;;;16.00;99.90;;;;;;4964843;28;20413;-83
2022/08/02 05:30:38;;;;;;;1164.00;999.90;;;16.00;99.90;;;;;;4957946;28;20434;-83
2022/08/02 05:33:07;;;;;;;1204.13;999.90;;;16.00;99.90;;;;;;4957544;28;20951;-83
2022/08/02 05:35:34;;;;;;;1089.50;980.92;;;15.90;99.90;;;;;;4971887;28;20427;-83
2022/08/02 05:38:02;;;;;;;1278.40;999.90;;;15.90;99.90;;;;;;4962014;28;20403;-83
2022/08/02 05:40:30;;;;;;;1271.78;999.90;;;15.90;99.90;;;;;;4963163;28;20770;-83
2022/08/02 05:42:57;;;;;;;1306.18;999.90;;;15.90;99.90;;;;;;4956059;28;20404;-84
2022/08/02 05:45:25;;;;;;;1145.88;999.90;;;15.90;99.90;;;;;;4970726;28;20487;-84
2022/08/02 05:47:52;;;;;;;1062.85;953.30;;;16.00;99.90;;;;;;4964707;28;20434;-83
2022/08/02 05:50:20;;;;;;;1103.30;991.45;;;15.90;99.90;;;;;;4956363;28;20403;-83
2022/08/02 05:53:02;;;;;;;1141.10;999.90;;;16.00;99.90;;;;;;4966261;28;20410;-82
2022/08/02 05:55:39;;;;;;;1307.20;999.90;;;16.10;99.90;;;;;;4959715;28;20477;-83
2022/08/02 05:58:19;;;;;;;1011.92;908.30;;;16.10;99.90;;;;;;4963597;28;20517;-83
2022/08/02 06:00:49;;;;;;;949.33;848.42;;;16.10;99.90;;;;;;4972288;28;20419;-84
2022/08/02 06:03:23;;;;;;;1104.43;991.42;;;16.10;99.90;;;;;;4970830;28;20400;-84
2022/08/02 06:06:28;;;;;;;1237.10;999.90;;;16.10;99.90;;;;;;4953272;28;20875;-84
2022/08/02 06:09:02;;;;;;;1126.65;999.90;;;16.20;99.90;;;;;;4936594;29;20416;-84
2022/08/02 06:11:37;;;;;;;1270.20;999.90;;;16.20;99.90;;;;;;4962084;28;20469;-83
2022/08/02 06:14:06;;;;;;;1218.93;999.90;;;16.30;99.90;;;;;;4968524;28;20438;-84
2022/08/02 06:16:36;;;;;;;1142.87;999.90;;;16.20;99.90;;;;;;4962803;28;20410;-84
2022/08/02 06:19:11;;;;;;;1015.30;918.25;;;16.30;99.90;;;;;;4963957;28;20403;-83
2022/08/02 06:21:41;;;;;;;954.92;860.75;;;16.30;99.90;;;;;;4972485;28;20497;-83
2022/08/02 06:24:33;;;;;;;1072.83;970.80;;;16.40;99.90;;;;;;4963854;28;20403;-84
2022/08/02 06:27:01;;;;;;;1198.78;999.90;;;16.40;99.90;;;;;;4963691;28;20410;-83
2022/08/02 06:29:32;;;;;;;1303.05;999.90;;;16.40;99.90;;;;;;4960629;28;20415;-83
2022/08/02 06:32:06;;;;;;;1239.50;999.90;;;16.40;99.90;;;;;;4964646;28;20411;-84
2022/08/02 06:34:38;;;;;;;1183.70;999.90;;;16.50;99.90;;;;;;4953518;29;20807;-84
2022/08/02 06:37:11;;;;;;;1040.32;941.90;;;16.40;99.90;;;;;;4965442;28;20446;-83
2022/08/02 06:39:49;;;;;;;1167.22;999.90;;;16.40;99.90;;;;;;4955889;28;20411;-83
2022/08/02 06:42:23;;;;;;;1176.05;999.90;;;16.40;99.90;;;;;;4960131;28;20411;-85
2022/08/02 06:44:55;;;;;;;1156.72;999.90;;;16.30;99.90;;;;;;4963493;28;20445;-84
2022/08/02 06:47:25;;;;;;;1022.20;923.05;;;16.30;99.90;;;;;;4961779;28;20402;-84
2022/08/02 06:49:54;;;;;;;982.47;890.17;;;16.30;99.90;;;;;;4970686;28;20419;-84
2022/08/02 06:52:25;;;;;;;977.10;880.63;;;16.40;99.90;;;;;;4962960;28;20471;-83
2022/08/02 06:54:57;;;;;;;1167.82;999.90;;;16.50;99.90;;;;;;4963395;28;20841;-83
2022/08/02 06:57:26;;;;;;;1270.13;999.90;;;16.60;99.90;;;;;;4964349;28;20411;-83
2022/08/02 06:59:54;;;;;;;1116.28;998.58;;;16.60;99.90;;;;;;4963654;28;20397;-83
2022/08/02 07:02:22;;;;;;;1019.00;922.80;;;16.60;99.90;;;;;;4965039;28;20406;-83
2022/08/02 07:04:49;;;;;;;1109.75;998.30;;;16.70;99.90;;;;;;4959636;28;20407;-84
2022/08/02 07:07:17;;;;;;;1143.60;999.90;;;16.90;99.90;;;;;;4960503;28;20465;-83
2022/08/02 07:09:45;;;;;;;1179.43;999.90;;;16.80;99.90;;;;;;4962949;28;20853;-84
2022/08/02 07:12:32;;;;;;;1134.32;999.90;;;16.70;99.90;;;;;;4962001;28;20386;-84
2022/08/02 07:15:01;;;;;;;1160.13;999.90;;;16.70;99.90;;;;;;4963877;28;20496;-84
2022/08/02 07:17:29;;;;;;;1103.20;990.57;;;16.70;99.90;;;;;;4952316;28;20400;-84
2022/08/02 07:19:58;;;;;;;1029.55;937.88;;;16.70;99.90;;;;;;4953625;29;20396;-84
2022/08/02 07:22:26;;;;;;;1193.38;999.90;;;16.70;99.90;;;;;;4964725;28;20410;-84
2022/08/02 07:24:56;;;;;;;986.22;893.15;;;16.80;99.90;;;;;;4963343;28;20410;-84
2022/08/02 07:27:24;;;;;;;1043.15;941.80;;;16.90;99.90;;;;;;4962580;28;20406;-83
2022/08/02 07:29:52;;;;;;;1146.20;999.90;;;16.90;99.90;;;;;;4962631;28;20441;-83
2022/08/02 07:32:23;;;;;;;1026.03;930.20;;;16.90;99.90;;;;;;4952573;28;20401;-84
2022/08/02 07:34:51;;;;;;;896.00;808.00;;;16.90;99.90;;;;;;4964725;28;20501;-83
2022/08/02 07:37:32;;;;;;;1038.40;939.97;;;17.00;99.90;;;;;;4954825;28;20791;-84
2022/08/02 07:40:20;;;;;;;1069.57;974.58;;;17.10;99.90;;;;;;4951242;28;20408;-85
2022/08/02 07:42:53;;;;;;;892.10;811.03;;;17.10;99.90;;;;;;4963681;28;20394;-84
2022/08/02 07:45:31;;;;;;;1073.15;976.83;;;17.20;99.90;;;;;;4962410;28;20426;-84
2022/08/02 07:47:58;;;;;;;1049.38;939.28;;;17.20;99.90;;;;;;4952319;29;20384;-84
2022/08/02 07:50:27;;;;;;;1080.43;969.03;;;17.20;99.90;;;;;;4964142;28;20848;-84
2022/08/02 07:52:54;;;;;;;1072.10;979.67;;;17.10;99.90;;;;;;4964392;28;20410;-83
2022/08/02 07:55:24;;;;;;;1073.88;977.17;;;17.20;99.90;;;;;;4961931;28;20429;-84
2022/08/02 07:58:08;;;;;;;1104.65;999.70;;;17.30;99.90;;;;;;4975279;28;20831;-84
2022/08/02 08:00:39;;;;;;;990.70;905.03;;;17.40;99.90;;;;;;4957830;28;20463;-84
2022/08/02 08:03:07;;;;;;;959.08;870.10;;;17.40;99.90;;;;;;4953814;28;20951;-84
2022/08/02 08:05:35;;;;;;;1092.68;986.35;;;17.60;99.90;;;;;;4945271;28;20421;-84
2022/08/02 08:08:03;;;;;;;943.40;855.07;;;17.70;99.90;;;;;;4959333;28;20416;-84
2022/08/02 08:10:31;;;;;;;1018.58;926.85;;;17.60;99.90;;;;;;4964270;28;20409;-84
2022/08/02 08:12:58;;;;;;;853.35;777.60;;;17.50;99.90;;;;;;4962954;28;20543;-84
2022/08/02 08:15:26;;;;;;;1243.93;999.90;;;17.40;99.90;;;;;;4960455;28;20393;-85
2022/08/02 08:17:53;;;;;;;952.93;861.63;;;17.40;99.90;;;;;;4964267;28;20407;-84
2022/08/02 08:20:21;;;;;;;963.40;882.97;;;17.50;99.90;;;;;;4962475;28;20468;-84
2022/08/02 08:22:49;;;;;;;1108.20;992.70;;;17.50;99.90;;;;;;4962160;28;20402;-84
2022/08/02 08:25:17;;;;;;;823.33;747.33;;;17.60;99.90;;;;;;4953084;28;20900;-84
2022/08/02 08:27:51;;;;;;;1053.60;956.78;;;17.70;99.90;;;;;;4962973;28;20810;-84
2022/08/02 08:30:21;;;;;;;875.53;800.40;;;17.70;99.90;;;;;;4966748;28;20419;-84
2022/08/02 08:32:48;;;;;;;964.70;884.90;;;17.60;99.90;;;;;;4967790;28;20391;-84
2022/08/02 08:35:16;;;;;;;983.85;901.80;;;17.60;99.90;;;;;;4955876;28;20898;-83
2022/08/02 08:37:44;;;;;;;787.17;714.97;;;17.60;99.90;;;;;;4960666;28;20408;-84
2022/08/02 08:40:12;;;;;;;972.57;885.50;;;17.80;99.90;;;;;;4964771;28;20398;-84
2022/08/02 08:42:46;;;;;;;918.60;830.58;;;17.90;99.90;;;;;;4967601;28;20408;-84
2022/08/02 08:45:13;;;;;;;970.55;886.03;;;18.00;99.90;;;;;;4949154;28;20404;-84
2022/08/02 08:47:41;;;;;;;911.00;829.13;;;18.00;99.90;;;;;;4956298;28;20815;-84
2022/08/02 08:50:19;;;;;;;955.30;873.33;;;18.10;99.90;;;;;;4965638;28;20401;-84
2022/08/02 08:53:18;;;;;;;1160.00;999.90;;;18.10;99.90;;;;;;4965952;28;20491;-84
2022/08/02 08:55:47;;;;;;;890.20;813.10;;;18.10;99.90;;;;;;4963530;28;20501;-84
2022/08/02 08:58:15;;;;;;;919.78;845.10;;;18.00;99.90;;;;;;4964680;28;20753;-85
2022/08/02 09:00:43;;;;;;;917.08;843.38;;;17.90;99.90;;;;;;4963577;28;20401;-84
2022/08/02 09:03:10;;;;;;;1001.23;919.23;;;17.90;99.90;;;;;;4968221;28;20610;-84
2022/08/02 09:05:39;;;;;;;994.28;909.38;;;18.00;99.90;;;;;;4965909;28;20414;-84
2022/08/02 09:08:07;;;;;;;1034.25;938.80;;;18.20;99.90;;;;;;4958986;28;20419;-85
2022/08/02 09:10:46;;;;;;;1174.50;999.90;;;18.40;99.90;;;;;;4965866;28;20412;-85
2022/08/02 09:13:21;;;;;;;848.17;764.33;;;18.40;99.90;;;;;;4965583;28;20807;-85
2022/08/02 09:16:09;;;;;;;1069.90;956.70;;;18.40;99.90;;;;;;4965449;28;20408;-85
2022/08/02 09:18:44;;;;;;;890.83;810.55;;;18.40;99.90;;;;;;4965063;28;20392;-85
2022/08/02 09:21:16;;;;;;;868.72;799.80;;;18.60;99.90;;;;;;4963269;28;20473;-85
2022/08/02 09:23:49;;;;;;;921.92;841.97;;;18.70;99.90;;;;;;4965063;28;20408;-85
2022/08/02 09:26:22;;;;;;;854.30;773.83;;;18.50;99.90;;;;;;4973618;28;20410;-84
2022/08/02 09:28:57;;;;;;;869.15;793.33;;;18.50;99.90;;;;;;4955425;28;20400;-84
2022/08/02 09:31:25;;;;;;;926.88;847.80;;;18.60;99.90;;;;;;4960356;28;20402;-84
2022/08/02 09:33:55;;;;;;;920.27;827.13;;;18.70;99.90;;;;;;4963034;28;20427;-85
2022/08/02 09:36:24;;;;;;;743.45;676.63;;;18.90;99.90;;;;;;4956388;28;20422;-84
2022/08/02 09:38:53;;;;;;;1031.60;938.40;;;18.80;99.90;;;;;;4963573;28;20403;-85
2022/08/02 09:41:29;;;;;;;899.83;817.00;;;18.90;99.90;;;;;;4963344;28;20390;-84
2022/08/02 09:43:58;;;;;;;1031.65;933.33;;;19.10;99.90;;;;;;4970506;28;20408;-84
2022/08/02 09:46:39;;;;;;;992.73;904.73;;;19.10;99.90;;;;;;4964925;28;20980;-84
2022/08/02 09:49:07;;;;;;;942.85;850.95;;;19.00;99.90;;;;;;4963943;28;20411;-83
2022/08/02 09:51:48;;;;;;;905.60;833.33;;;18.80;99.90;;;;;;4955661;28;20410;-83
2022/08/02 09:54:20;;;;;;;1068.82;978.65;;;18.80;99.90;;;;;;4965217;28;20475;-84
2022/08/02 09:56:53;;;;;;;1012.17;924.67;;;18.90;99.90;;;;;;4971992;28;20415;-84
2022/08/02 09:59:23;;;;;;;922.88;844.03;;;19.20;99.90;;;;;;4962823;28;20798;-84
2022/08/02 10:01:52;;;;;;;883.30;802.65;;;19.10;99.90;;;;;;4972324;28;20404;-84
2022/08/02 10:04:30;;;;;;;886.83;805.15;;;19.10;99.90;;;;;;4970951;28;20410;-84
2022/08/02 10:07:03;;;;;;;1113.63;999.90;;;19.00;99.90;;;;;;4956729;28;20419;-83
2022/08/02 10:09:32;;;;;;;1015.10;927.67;;;18.90;99.90;;;;;;4953940;29;20543;-84
2022/08/02 10:12:00;;;;;;;1216.53;999.90;;;18.90;99.90;;;;;;4937935;29;20403;-85
2022/08/02 10:14:35;;;;;;;952.15;871.72;;;18.90;99.90;;;;;;4966138;28;20410;-83
2022/08/02 10:17:04;;;;;;;913.80;840.38;;;18.90;99.90;;;;;;4971045;28;20420;-84
2022/08/02 10:19:33;;;;;;;846.28;763.97;;;19.00;99.90;;;;;;4963988;28;20404;-85
2022/08/02 10:22:21;;;;;;;820.80;740.13;;;19.10;99.90;;;;;;4967231;28;20503;-83
2022/08/02 10:24:50;;;;;;;846.28;763.83;;;19.30;99.90;;;;;;4966536;28;20391;-83
2022/08/02 10:27:20;;;;;;;944.35;865.47;;;19.10;99.90;;;;;;4949940;28;20411;-83
2022/08/02 10:29:49;;;;;;;1034.05;939.78;;;19.10;99.90;;;;;;4964057;28;20447;-82
2022/08/02 10:32:37;;;;;;;938.92;850.67;;;19.40;99.90;;;;;;4965642;28;20980;-84
2022/08/02 10:35:15;;;;;;;914.85;829.35;;;19.50;99.90;;;;;;4964372;28;20407;-83
2022/08/02 10:37:59;;;;;;;748.50;682.58;;;19.50;99.90;;;;;;4970215;28;20917;-83
2022/08/02 10:40:47;;;;;;;890.72;811.25;;;19.40;99.90;;;;;;4963620;28;20813;-82
2022/08/02 10:43:30;;;;;;;892.55;824.00;;;19.40;99.90;;;;;;4962821;28;20402;-83
2022/08/02 10:46:32;;;;;;;1029.50;938.70;;;19.40;99.90;;;;;;4965240;28;20436;-83
2022/08/02 10:49:08;;;;;;;1049.00;955.58;;;19.40;99.90;;;;;;4963040;28;20418;-83
2022/08/02 10:52:01;;;;;;;1072.53;970.13;;;19.40;99.90;;;;;;4961420;28;20438;-83
2022/08/02 10:54:35;;;;;;;933.42;847.50;;;19.50;99.90;;;;;;4954199;28;20423;-83
2022/08/02 10:57:14;;;;;;;995.40;913.63;;;19.60;99.90;;;;;;4957783;28;20447;-83
2022/08/02 10:59:42;;;;;;;996.43;894.00;;;19.60;99.90;;;;;;4968887;28;20824;-83
2022/08/02 11:02:11;;;;;;;851.83;774.67;;;19.70;99.90;;;;;;4962067;28;20411;-82
2022/08/02 11:04:42;;;;;;;869.90;791.83;;;19.70;99.90;;;;;;4961796;28;20410;-83
2022/08/02 11:07:34;;;;;;;822.03;745.10;;;19.70;99.90;;;;;;4970225;28;20460;-83
2022/08/02 11:10:38;;;;;;;887.72;814.58;;;19.70;99.90;;;;;;4959728;28;20420;-83
2022/08/02 11:13:10;;;;;;;883.20;804.38;;;19.70;99.90;;;;;;4947887;28;20412;-83
2022/08/02 11:16:00;;;;;;;681.17;617.60;;;19.90;99.90;;;;;;4957536;28;20402;-83
2022/08/02 11:18:43;;;;;;;917.05;827.63;;;19.90;99.90;;;;;;4960092;28;20518;-83
2022/08/02 11:21:25;;;;;;;867.78;784.97;;;19.90;99.90;;;;;;4962413;28;20417;-82
2022/08/02 11:23:53;;;;;;;1137.55;999.90;;;19.80;99.90;;;;;;4960717;28;20470;-83
2022/08/02 11:26:30;;;;;;;895.85;826.20;;;19.70;99.90;;;;;;4966916;28;20433;-83
2022/08/02 11:29:00;;;;;;;917.85;846.17;;;19.70;99.90;;;;;;4962653;28;20402;-83
2022/08/02 11:31:28;;;;;;;992.28;910.85;;;19.60;99.90;;;;;;4971098;28;20425;-83
2022/08/02 11:33:56;;;;;;;965.37;884.83;;;19.70;99.90;;;;;;4970617;28;20973;-83
2022/08/02 11:36:23;;;;;;;1233.53;999.90;;;20.00;99.90;;;;;;4952380;28;20470;-83
2022/08/02 11:39:14;;;;;;;852.97;758.92;;;20.30;99.90;;;;;;4963169;28;20407;-83
2022/08/02 11:41:47;;;;;;;998.17;868.17;;;20.50;99.90;;;;;;4964483;28;20418;-83
2022/08/02 11:44:16;;;;;;;906.85;815.58;;;20.40;99.90;;;;;;4957822;28;20499;-83
2022/08/02 11:46:44;;;;;;;957.10;863.57;;;20.40;99.90;;;;;;4962213;28;20418;-83
2022/08/02 11:49:15;;;;;;;944.28;848.78;;;20.60;99.90;;;;;;4959548;28;20476;-83
2022/08/02 11:52:03;;;;;;;925.53;825.80;;;20.80;99.90;;;;;;4963165;28;20434;-83
2022/08/02 11:54:39;;;;;;;1004.03;916.53;;;20.90;99.90;;;;;;4968217;28;20392;-82
2022/08/02 11:57:21;;;;;;;861.80;787.28;;;20.90;99.90;;;;;;4958291;28;20407;-82
2022/08/02 11:59:51;;;;;;;978.80;878.20;;;20.90;99.90;;;;;;4964164;28;20442;-83
2022/08/02 12:02:21;;;;;;;995.92;914.05;;;20.80;99.90;;;;;;4942497;28;20444;-83
2022/08/02 12:05:02;;;;;;;1096.63;944.30;;;20.60;99.90;;;;;;4963698;28;20414;-83
2022/08/02 12:07:38;;;;;;;872.30;795.67;;;20.80;99.90;;;;;;4971114;28;20455;-83
2022/08/02 12:10:16;;;;;;;815.92;740.30;;;21.00;99.90;;;;;;4962057;28;20573;-83
2022/08/02 12:12:58;;;;;;;781.42;710.10;;;21.10;99.90;;;;;;4962910;28;20479;-83
2022/08/02 12:15:48;;;;;;;796.72;720.03;;;21.30;99.90;;;;;;4960362;28;20480;-83
2022/08/02 12:21:35;;;;;;;913.10;833.00;;;21.30;99.90;;;;;;4980921;28;20450;-83
2022/08/02 12:24:03;;;;;;;863.78;780.60;;;21.00;99.90;;;;;;4952901;28;20427;-83
2022/08/02 12:26:42;;;;;;;1157.50;999.90;;;21.00;99.90;;;;;;4967022;28;20903;-83
2022/08/02 12:29:10;;;;;;;1319.20;999.90;;;21.00;99.90;;;;;;4972625;28;20412;-84
2022/08/02 12:31:44;;;;;;;943.55;858.55;;;20.90;99.90;;;;;;4951973;28;20404;-82